sensor_id;sensor_type;location;lat;lon;timestamp;temperature;humidity
23137;DHT22;11737;50.558;7.258;2023-03-05T00:01:35;8.10;99.90
23137;DHT22;11737;50.558;7.258;2023-03-05T00:04:04;8.10;99.90
23137;DHT22;11737;50.558;7.258;2023-03-05T00:06:32;8.20;99.90
23137;DHT22;11737;50.558;7.258;2023-03-05T00:09:01;8.30;99.90
23137;DHT22;11737;50.558;7.258;2023-03-05T00:11:30;8.30;99.90
23137;DHT22;11737;50.558;7.258;2023-03-05T00:14:00;8.40;99.90
23137;DHT22;11737;50.558;7.258;2023-03-05T00:16:30;8.40;99.90
23137;DHT22;11737;50.558;7.258;2023-03-05T00:18:59;8.40;99.90
23137;DHT22;11737;50.558;7.258;2023-03-05T00:21:36;8.40;99.90
23137;DHT22;11737;50.558;7.258;2023-03-05T00:24:02;8.50;99.90
23137;DHT22;11737;50.558;7.258;2023-03-05T00:26:31;8.40;99.90
23137;DHT22;11737;50.558;7.258;2023-03-05T00:28:59;8.40;99.90
23137;DHT22;11737;50.558;7.258;2023-03-05T00:31:29;8.40;99.90
23137;DHT22;11737;50.558;7.258;2023-03-05T00:36:48;8.40;99.90
23137;DHT22;11737;50.558;7.258;2023-03-05T00:39:16;8.30;99.90
23137;DHT22;11737;50.558;7.258;2023-03-05T00:41:44;8.40;99.90
23137;DHT22;11737;50.558;7.258;2023-03-05T00:44:12;8.40;99.90
23137;DHT22;11737;50.558;7.258;2023-03-05T00:46:39;8.40;99.90
23137;DHT22;11737;50.558;7.258;2023-03-05T00:49:07;8.40;99.90
23137;DHT22;11737;50.558;7.258;2023-03-05T00:51:35;8.40;99.90
23137;DHT22;11737;50.558;7.258;2023-03-05T00:54:03;8.40;99.90
23137;DHT22;11737;50.558;7.258;2023-03-05T00:56:31;8.40;99.90
23137;DHT22;11737;50.558;7.258;2023-03-05T00:58:58;8.40;99.90
23137;DHT22;11737;50.558;7.258;2023-03-05T01:01:26;8.30;99.90
23137;DHT22;11737;50.558;7.258;2023-03-05T01:03:54;8.40;99.90
23137;DHT22;11737;50.558;7.258;2023-03-05T01:06:27;8.40;99.90
23137;DHT22;11737;50.558;7.258;2023-03-05T01:08:55;8.40;99.90
23137;DHT22;11737;50.558;7.258;2023-03-05T01:11:22;8.30;99.90
23137;DHT22;11737;50.558;7.258;2023-03-05T01:13:50;8.30;99.90
23137;DHT22;11737;50.558;7.258;2023-03-05T01:16:17;8.30;99.90
23137;DHT22;11737;50.558;7.258;2023-03-05T01:18:45;8.30;99.90
23137;DHT22;11737;50.558;7.258;2023-03-05T01:21:12;8.30;99.90
23137;DHT22;11737;50.558;7.258;2023-03-05T01:23:40;8.30;99.90
23137;DHT22;11737;50.558;7.258;2023-03-05T01:26:07;8.20;99.90
23137;DHT22;11737;50.558;7.258;2023-03-05T01:28:35;8.20;99.90
23137;DHT22;11737;50.558;7.258;2023-03-05T01:31:12;8.20;99.90
23137;DHT22;11737;50.558;7.258;2023-03-05T01:33:37;8.20;99.90
23137;DHT22;11737;50.558;7.258;2023-03-05T01:36:09;8.20;99.90
23137;DHT22;11737;50.558;7.258;2023-03-05T01:38:38;8.20;99.90
23137;DHT22;11737;50.558;7.258;2023-03-05T01:43:54;8.20;99.90
23137;DHT22;11737;50.558;7.258;2023-03-05T01:46:30;8.10;99.90
23137;DHT22;11737;50.558;7.258;2023-03-05T01:52:09;8.10;99.90
23137;DHT22;11737;50.558;7.258;2023-03-05T01:54:42;8.10;99.90
23137;DHT22;11737;50.558;7.258;2023-03-05T01:57:15;8.10;99.90
23137;DHT22;11737;50.558;7.258;2023-03-05T01:59:46;8.10;99.90
23137;DHT22;11737;50.558;7.258;2023-03-05T02:02:14;8.10;99.90
23137;DHT22;11737;50.558;7.258;2023-03-05T02:04:51;8.10;99.90
23137;DHT22;11737;50.558;7.258;2023-03-05T02:07:20;8.10;99.90
23137;DHT22;11737;50.558;7.258;2023-03-05T02:09:49;8.10;99.90
23137;DHT22;11737;50.558;7.258;2023-03-05T02:12:16;8.20;99.90
23137;DHT22;11737;50.558;7.258;2023-03-05T02:14:46;8.20;99.90
23137;DHT22;11737;50.558;7.258;2023-03-05T02:17:14;8.30;99.90
23137;DHT22;11737;50.558;7.258;2023-03-05T02:19:50;8.30;99.90
23137;DHT22;11737;50.558;7.258;2023-03-05T02:22:19;8.30;99.90
23137;DHT22;11737;50.558;7.258;2023-03-05T02:24:48;8.30;99.90
23137;DHT22;11737;50.558;7.258;2023-03-05T02:27:15;8.30;99.90
23137;DHT22;11737;50.558;7.258;2023-03-05T02:29:45;8.30;99.90
23137;DHT22;11737;50.558;7.258;2023-03-05T02:35:01;8.20;99.90
23137;DHT22;11737;50.558;7.258;2023-03-05T02:37:28;8.20;99.90
23137;DHT22;11737;50.558;7.258;2023-03-05T02:39:56;8.30;99.90
23137;DHT22;11737;50.558;7.258;2023-03-05T02:42:23;8.30;99.90
23137;DHT22;11737;50.558;7.258;2023-03-05T02:44:51;8.30;99.90
23137;DHT22;11737;50.558;7.258;2023-03-05T02:47:19;8.30;99.90
23137;DHT22;11737;50.558;7.258;2023-03-05T02:49:46;8.30;99.90
23137;DHT22;11737;50.558;7.258;2023-03-05T02:52:14;8.30;99.90
23137;DHT22;11737;50.558;7.258;2023-03-05T02:54:41;8.30;99.90
23137;DHT22;11737;50.558;7.258;2023-03-05T02:57:09;8.30;99.90
23137;DHT22;11737;50.558;7.258;2023-03-05T02:59:36;8.30;99.90
23137;DHT22;11737;50.558;7.258;2023-03-05T03:02:04;8.20;99.90
23137;DHT22;11737;50.558;7.258;2023-03-05T03:04:31;8.20;99.90
23137;DHT22;11737;50.558;7.258;2023-03-05T03:06:59;8.20;99.90
23137;DHT22;11737;50.558;7.258;2023-03-05T03:09:26;8.20;99.90
23137;DHT22;11737;50.558;7.258;2023-03-05T03:11:54;8.20;99.90
23137;DHT22;11737;50.558;7.258;2023-03-05T03:14:22;8.20;99.90
23137;DHT22;11737;50.558;7.258;2023-03-05T03:16:49;8.20;99.90
23137;DHT22;11737;50.558;7.258;2023-03-05T03:19:17;8.20;99.90
23137;DHT22;11737;50.558;7.258;2023-03-05T03:21:44;8.10;99.90
23137;DHT22;11737;50.558;7.258;2023-03-05T03:24:12;8.10;99.90
23137;DHT22;11737;50.558;7.258;2023-03-05T03:26:39;8.10;99.90
23137;DHT22;11737;50.558;7.258;2023-03-05T03:29:07;8.00;99.90
23137;DHT22;11737;50.558;7.258;2023-03-05T03:31:34;8.00;99.90
23137;DHT22;11737;50.558;7.258;2023-03-05T03:34:02;7.90;99.90
23137;DHT22;11737;50.558;7.258;2023-03-05T03:36:29;7.70;99.90
23137;DHT22;11737;50.558;7.258;2023-03-05T03:38:57;7.70;99.90
23137;DHT22;11737;50.558;7.258;2023-03-05T03:41:26;7.60;99.90
23137;DHT22;11737;50.558;7.258;2023-03-05T03:43:53;7.50;99.90
23137;DHT22;11737;50.558;7.258;2023-03-05T03:46:20;7.50;99.90
23137;DHT22;11737;50.558;7.258;2023-03-05T03:48:51;7.50;99.90
23137;DHT22;11737;50.558;7.258;2023-03-05T03:51:19;7.50;99.90
23137;DHT22;11737;50.558;7.258;2023-03-05T03:53:46;7.50;99.90
23137;DHT22;11737;50.558;7.258;2023-03-05T03:56:14;7.30;99.90
23137;DHT22;11737;50.558;7.258;2023-03-05T03:58:41;7.10;99.90
23137;DHT22;11737;50.558;7.258;2023-03-05T04:01:09;7.00;99.90
23137;DHT22;11737;50.558;7.258;2023-03-05T04:03:36;6.90;99.90
23137;DHT22;11737;50.558;7.258;2023-03-05T04:06:04;6.80;99.90
23137;DHT22;11737;50.558;7.258;2023-03-05T04:08:32;6.70;99.90
23137;DHT22;11737;50.558;7.258;2023-03-05T04:11:00;6.70;99.90
23137;DHT22;11737;50.558;7.258;2023-03-05T04:13:29;6.70;99.90
23137;DHT22;11737;50.558;7.258;2023-03-05T04:15:56;6.60;99.90
23137;DHT22;11737;50.558;7.258;2023-03-05T04:18:24;6.50;99.90
23137;DHT22;11737;50.558;7.258;2023-03-05T04:20:51;6.50;99.90
23137;DHT22;11737;50.558;7.258;2023-03-05T04:23:19;6.40;99.90
23137;DHT22;11737;50.558;7.258;2023-03-05T04:25:47;6.40;99.90
23137;DHT22;11737;50.558;7.258;2023-03-05T04:28:14;6.40;99.90
23137;DHT22;11737;50.558;7.258;2023-03-05T04:30:43;6.40;99.90
23137;DHT22;11737;50.558;7.258;2023-03-05T04:33:10;6.40;99.90
23137;DHT22;11737;50.558;7.258;2023-03-05T04:35:38;6.40;99.90
23137;DHT22;11737;50.558;7.258;2023-03-05T04:38:06;6.30;99.90
23137;DHT22;11737;50.558;7.258;2023-03-05T04:43:22;6.30;99.90
23137;DHT22;11737;50.558;7.258;2023-03-05T04:45:49;6.30;99.90
23137;DHT22;11737;50.558;7.258;2023-03-05T04:48:17;6.30;99.90
23137;DHT22;11737;50.558;7.258;2023-03-05T04:50:45;6.40;99.90
23137;DHT22;11737;50.558;7.258;2023-03-05T04:53:12;6.40;99.90
23137;DHT22;11737;50.558;7.258;2023-03-05T04:55:40;6.30;99.90
23137;DHT22;11737;50.558;7.258;2023-03-05T04:58:07;6.30;99.90
23137;DHT22;11737;50.558;7.258;2023-03-05T05:00:35;6.40;99.90
23137;DHT22;11737;50.558;7.258;2023-03-05T05:03:02;6.50;99.90
23137;DHT22;11737;50.558;7.258;2023-03-05T05:05:30;6.50;99.90
23137;DHT22;11737;50.558;7.258;2023-03-05T05:07:58;6.60;99.90
23137;DHT22;11737;50.558;7.258;2023-03-05T05:10:26;6.70;99.90
23137;DHT22;11737;50.558;7.258;2023-03-05T05:12:53;6.70;99.90
23137;DHT22;11737;50.558;7.258;2023-03-05T05:15:21;6.50;99.90
23137;DHT22;11737;50.558;7.258;2023-03-05T05:17:49;6.30;99.90
23137;DHT22;11737;50.558;7.258;2023-03-05T05:20:17;6.40;99.90
23137;DHT22;11737;50.558;7.258;2023-03-05T05:22:45;6.30;99.90
23137;DHT22;11737;50.558;7.258;2023-03-05T05:25:13;6.30;99.90
23137;DHT22;11737;50.558;7.258;2023-03-05T05:27:40;6.50;99.90
23137;DHT22;11737;50.558;7.258;2023-03-05T05:30:09;6.60;99.90
23137;DHT22;11737;50.558;7.258;2023-03-05T05:32:36;6.70;99.90
23137;DHT22;11737;50.558;7.258;2023-03-05T05:35:04;6.70;99.90
23137;DHT22;11737;50.558;7.258;2023-03-05T05:37:32;6.80;99.90
23137;DHT22;11737;50.558;7.258;2023-03-05T05:40:00;6.90;99.90
23137;DHT22;11737;50.558;7.258;2023-03-05T05:42:27;6.90;99.90
23137;DHT22;11737;50.558;7.258;2023-03-05T05:44:55;7.00;99.90
23137;DHT22;11737;50.558;7.258;2023-03-05T05:47:22;7.00;99.90
23137;DHT22;11737;50.558;7.258;2023-03-05T05:49:50;7.00;99.90
23137;DHT22;11737;50.558;7.258;2023-03-05T05:52:17;7.00;99.90
23137;DHT22;11737;50.558;7.258;2023-03-05T05:54:45;7.10;99.90
23137;DHT22;11737;50.558;7.258;2023-03-05T05:57:13;7.20;99.90
23137;DHT22;11737;50.558;7.258;2023-03-05T06:02:29;7.20;99.90
23137;DHT22;11737;50.558;7.258;2023-03-05T06:04:56;7.10;99.90
23137;DHT22;11737;50.558;7.258;2023-03-05T06:07:24;7.00;99.90
23137;DHT22;11737;50.558;7.258;2023-03-05T06:09:51;7.00;99.90
23137;DHT22;11737;50.558;7.258;2023-03-05T06:12:19;7.10;99.90
23137;DHT22;11737;50.558;7.258;2023-03-05T06:14:46;7.10;99.90
23137;DHT22;11737;50.558;7.258;2023-03-05T06:17:14;7.10;99.90
23137;DHT22;11737;50.558;7.258;2023-03-05T06:19:41;7.10;99.90
23137;DHT22;11737;50.558;7.258;2023-03-05T06:22:09;7.10;99.90
23137;DHT22;11737;50.558;7.258;2023-03-05T06:24:37;7.00;99.90
23137;DHT22;11737;50.558;7.258;2023-03-05T06:27:05;7.00;99.90
23137;DHT22;11737;50.558;7.258;2023-03-05T06:29:32;7.00;99.90
23137;DHT22;11737;50.558;7.258;2023-03-05T06:32:00;6.90;99.90
23137;DHT22;11737;50.558;7.258;2023-03-05T06:34:27;6.90;99.90
23137;DHT22;11737;50.558;7.258;2023-03-05T06:36:55;6.90;99.90
23137;DHT22;11737;50.558;7.258;2023-03-05T06:39:22;7.00;99.90
23137;DHT22;11737;50.558;7.258;2023-03-05T06:41:51;7.10;99.90
23137;DHT22;11737;50.558;7.258;2023-03-05T06:44:18;7.10;99.90
23137;DHT22;11737;50.558;7.258;2023-03-05T06:46:46;7.10;99.90
23137;DHT22;11737;50.558;7.258;2023-03-05T06:49:13;7.10;99.90
23137;DHT22;11737;50.558;7.258;2023-03-05T06:51:41;7.20;99.90
23137;DHT22;11737;50.558;7.258;2023-03-05T06:54:13;7.20;99.90
23137;DHT22;11737;50.558;7.258;2023-03-05T06:56:44;7.20;99.90
23137;DHT22;11737;50.558;7.258;2023-03-05T06:59:14;7.30;99.90
23137;DHT22;11737;50.558;7.258;2023-03-05T07:01:43;7.20;99.90
23137;DHT22;11737;50.558;7.258;2023-03-05T07:04:11;7.30;99.90
23137;DHT22;11737;50.558;7.258;2023-03-05T07:06:40;7.30;99.90
23137;DHT22;11737;50.558;7.258;2023-03-05T07:09:11;7.20;99.90
23137;DHT22;11737;50.558;7.258;2023-03-05T07:11:39;7.10;99.90
23137;DHT22;11737;50.558;7.258;2023-03-05T07:14:06;7.10;99.90
23137;DHT22;11737;50.558;7.258;2023-03-05T07:16:34;7.10;99.90
23137;DHT22;11737;50.558;7.258;2023-03-05T07:19:04;7.10;99.90
23137;DHT22;11737;50.558;7.258;2023-03-05T07:21:52;7.10;99.90
23137;DHT22;11737;50.558;7.258;2023-03-05T07:24:19;7.20;99.90
23137;DHT22;11737;50.558;7.258;2023-03-05T07:26:47;7.20;99.90
23137;DHT22;11737;50.558;7.258;2023-03-05T07:29:14;7.10;99.90
23137;DHT22;11737;50.558;7.258;2023-03-05T07:31:42;7.10;99.90
23137;DHT22;11737;50.558;7.258;2023-03-05T07:34:09;7.00;99.90
23137;DHT22;11737;50.558;7.258;2023-03-05T07:36:37;7.00;99.90
23137;DHT22;11737;50.558;7.258;2023-03-05T07:39:04;7.10;99.90
23137;DHT22;11737;50.558;7.258;2023-03-05T07:41:32;7.00;99.90
23137;DHT22;11737;50.558;7.258;2023-03-05T07:44:00;7.10;99.90
23137;DHT22;11737;50.558;7.258;2023-03-05T07:46:30;7.10;99.90
23137;DHT22;11737;50.558;7.258;2023-03-05T07:48:58;7.00;99.90
23137;DHT22;11737;50.558;7.258;2023-03-05T07:51:26;7.20;99.90
23137;DHT22;11737;50.558;7.258;2023-03-05T07:53:56;7.30;99.90
23137;DHT22;11737;50.558;7.258;2023-03-05T07:56:29;7.40;99.90
23137;DHT22;11737;50.558;7.258;2023-03-05T07:59:07;7.40;99.90
23137;DHT22;11737;50.558;7.258;2023-03-05T08:01:31;7.40;99.90
23137;DHT22;11737;50.558;7.258;2023-03-05T08:04:00;7.50;99.90
23137;DHT22;11737;50.558;7.258;2023-03-05T08:06:28;7.40;99.90
23137;DHT22;11737;50.558;7.258;2023-03-05T08:08:56;7.20;99.90
23137;DHT22;11737;50.558;7.258;2023-03-05T08:11:24;7.10;99.90
23137;DHT22;11737;50.558;7.258;2023-03-05T08:13:51;7.00;99.90
23137;DHT22;11737;50.558;7.258;2023-03-05T08:16:20;7.00;99.90
23137;DHT22;11737;50.558;7.258;2023-03-05T08:18:52;7.20;99.90
23137;DHT22;11737;50.558;7.258;2023-03-05T08:21:21;7.50;99.90
23137;DHT22;11737;50.558;7.258;2023-03-05T08:23:52;7.40;99.90
23137;DHT22;11737;50.558;7.258;2023-03-05T08:29:09;7.30;99.90
23137;DHT22;11737;50.558;7.258;2023-03-05T08:31:37;7.30;99.90
23137;DHT22;11737;50.558;7.258;2023-03-05T08:34:05;7.30;99.90
23137;DHT22;11737;50.558;7.258;2023-03-05T08:36:32;7.30;99.90
23137;DHT22;11737;50.558;7.258;2023-03-05T08:39:00;7.40;99.90
23137;DHT22;11737;50.558;7.258;2023-03-05T08:41:28;7.60;99.90
23137;DHT22;11737;50.558;7.258;2023-03-05T08:43:56;7.70;99.90
23137;DHT22;11737;50.558;7.258;2023-03-05T08:46:23;7.80;99.90
23137;DHT22;11737;50.558;7.258;2023-03-05T08:48:51;8.00;99.90
23137;DHT22;11737;50.558;7.258;2023-03-05T08:51:21;8.10;99.90
23137;DHT22;11737;50.558;7.258;2023-03-05T08:53:51;8.20;99.90
23137;DHT22;11737;50.558;7.258;2023-03-05T08:56:19;8.30;99.90
23137;DHT22;11737;50.558;7.258;2023-03-05T08:58:47;8.60;99.90
23137;DHT22;11737;50.558;7.258;2023-03-05T09:01:15;8.80;99.90
23137;DHT22;11737;50.558;7.258;2023-03-05T09:03:43;9.10;99.90
23137;DHT22;11737;50.558;7.258;2023-03-05T09:06:11;9.30;99.90
23137;DHT22;11737;50.558;7.258;2023-03-05T09:08:39;9.50;99.90
23137;DHT22;11737;50.558;7.258;2023-03-05T09:11:08;9.60;99.90
23137;DHT22;11737;50.558;7.258;2023-03-05T09:13:36;9.80;99.90
23137;DHT22;11737;50.558;7.258;2023-03-05T09:16:06;9.80;99.90
23137;DHT22;11737;50.558;7.258;2023-03-05T09:18:34;9.80;99.90
23137;DHT22;11737;50.558;7.258;2023-03-05T09:21:07;9.70;99.90
23137;DHT22;11737;50.558;7.258;2023-03-05T09:23:34;9.70;99.90
23137;DHT22;11737;50.558;7.258;2023-03-05T09:26:05;9.70;99.90
23137;DHT22;11737;50.558;7.258;2023-03-05T09:28:33;9.60;99.90
23137;DHT22;11737;50.558;7.258;2023-03-05T09:31:05;9.50;99.90
23137;DHT22;11737;50.558;7.258;2023-03-05T09:33:34;9.30;99.90
23137;DHT22;11737;50.558;7.258;2023-03-05T09:36:02;9.40;99.90
23137;DHT22;11737;50.558;7.258;2023-03-05T09:38:30;9.40;99.90
23137;DHT22;11737;50.558;7.258;2023-03-05T09:46:54;9.40;99.90
23137;DHT22;11737;50.558;7.258;2023-03-05T09:49:48;9.50;99.90
23137;DHT22;11737;50.558;7.258;2023-03-05T09:52:54;9.60;99.90
23137;DHT22;11737;50.558;7.258;2023-03-05T09:55:34;9.80;99.90
23137;DHT22;11737;50.558;7.258;2023-03-05T09:58:17;9.90;99.90
23137;DHT22;11737;50.558;7.258;2023-03-05T10:01:21;9.90;99.90
23137;DHT22;11737;50.558;7.258;2023-03-05T10:04:10;10.10;99.90
23137;DHT22;11737;50.558;7.258;2023-03-05T10:06:55;10.20;99.90
23137;DHT22;11737;50.558;7.258;2023-03-05T10:09:40;10.30;99.90
23137;DHT22;11737;50.558;7.258;2023-03-05T10:12:12;10.30;99.90
23137;DHT22;11737;50.558;7.258;2023-03-05T10:14:38;10.40;99.90
23137;DHT22;11737;50.558;7.258;2023-03-05T10:22:39;10.40;99.90
23137;DHT22;11737;50.558;7.258;2023-03-05T10:34:15;10.70;99.90
23137;DHT22;11737;50.558;7.258;2023-03-05T10:39:40;10.90;99.90
23137;DHT22;11737;50.558;7.258;2023-03-05T10:42:34;10.80;99.90
23137;DHT22;11737;50.558;7.258;2023-03-05T10:45:13;10.90;99.90
23137;DHT22;11737;50.558;7.258;2023-03-05T10:47:47;11.10;99.90
23137;DHT22;11737;50.558;7.258;2023-03-05T10:50:27;11.30;99.90
23137;DHT22;11737;50.558;7.258;2023-03-05T10:53:14;11.30;99.90
23137;DHT22;11737;50.558;7.258;2023-03-05T10:56:02;11.40;99.90
23137;DHT22;11737;50.558;7.258;2023-03-05T10:58:30;11.30;99.90
23137;DHT22;11737;50.558;7.258;2023-03-05T11:01:17;11.20;99.90
23137;DHT22;11737;50.558;7.258;2023-03-05T11:03:54;11.20;99.90
23137;DHT22;11737;50.558;7.258;2023-03-05T11:06:31;11.30;99.90
23137;DHT22;11737;50.558;7.258;2023-03-05T11:12:04;11.30;99.90
23137;DHT22;11737;50.558;7.258;2023-03-05T11:14:32;11.20;99.90
23137;DHT22;11737;50.558;7.258;2023-03-05T11:17:02;11.00;99.90
23137;DHT22;11737;50.558;7.258;2023-03-05T11:22:20;10.80;99.90
23137;DHT22;11737;50.558;7.258;2023-03-05T11:27:48;10.40;99.90
23137;DHT22;11737;50.558;7.258;2023-03-05T11:30:20;10.40;99.90
23137;DHT22;11737;50.558;7.258;2023-03-05T11:32:48;10.30;99.90
23137;DHT22;11737;50.558;7.258;2023-03-05T11:35:32;10.10;99.90
23137;DHT22;11737;50.558;7.258;2023-03-05T11:38:02;10.20;99.90
23137;DHT22;11737;50.558;7.258;2023-03-05T11:40:32;10.30;99.90
23137;DHT22;11737;50.558;7.258;2023-03-05T11:43:04;10.20;99.90
23137;DHT22;11737;50.558;7.258;2023-03-05T11:45:32;10.10;99.90
23137;DHT22;11737;50.558;7.258;2023-03-05T11:51:02;10.20;99.90
23137;DHT22;11737;50.558;7.258;2023-03-05T11:53:35;10.30;99.90
23137;DHT22;11737;50.558;7.258;2023-03-05T11:56:24;10.20;99.90
23137;DHT22;11737;50.558;7.258;2023-03-05T11:59:06;10.10;99.90
23137;DHT22;11737;50.558;7.258;2023-03-05T12:01:55;10.00;99.90
23137;DHT22;11737;50.558;7.258;2023-03-05T12:04:24;9.80;99.90
23137;DHT22;11737;50.558;7.258;2023-03-05T12:06:53;9.80;99.90
23137;DHT22;11737;50.558;7.258;2023-03-05T12:15:30;9.40;99.90
23137;DHT22;11737;50.558;7.258;2023-03-05T12:21:07;9.50;99.90
23137;DHT22;11737;50.558;7.258;2023-03-05T12:23:45;9.60;99.90
23137;DHT22;11737;50.558;7.258;2023-03-05T12:26:13;9.70;99.90
23137;DHT22;11737;50.558;7.258;2023-03-05T12:31:38;9.90;99.90
23137;DHT22;11737;50.558;7.258;2023-03-05T12:37:58;10.00;99.90
23137;DHT22;11737;50.558;7.258;2023-03-05T12:39:51;10.20;99.90
23137;DHT22;11737;50.558;7.258;2023-03-05T12:53:12;10.90;99.90
23137;DHT22;11737;50.558;7.258;2023-03-05T12:55:59;10.80;99.90
23137;DHT22;11737;50.558;7.258;2023-03-05T13:02:02;10.70;99.90
23137;DHT22;11737;50.558;7.258;2023-03-05T13:04:23;10.80;99.90
23137;DHT22;11737;50.558;7.258;2023-03-05T13:06:47;10.80;99.90
23137;DHT22;11737;50.558;7.258;2023-03-05T13:09:18;10.90;99.90
23137;DHT22;11737;50.558;7.258;2023-03-05T13:11:52;11.00;99.90
23137;DHT22;11737;50.558;7.258;2023-03-05T13:17:29;11.00;99.90
23137;DHT22;11737;50.558;7.258;2023-03-05T13:19:57;11.00;99.90
23137;DHT22;11737;50.558;7.258;2023-03-05T13:22:25;10.90;99.90
23137;DHT22;11737;50.558;7.258;2023-03-05T13:25:15;10.70;99.90
23137;DHT22;11737;50.558;7.258;2023-03-05T13:27:42;10.70;99.90
23137;DHT22;11737;50.558;7.258;2023-03-05T13:30:22;10.70;99.90
23137;DHT22;11737;50.558;7.258;2023-03-05T13:32:51;10.80;99.90
23137;DHT22;11737;50.558;7.258;2023-03-05T13:35:20;10.90;99.90
23137;DHT22;11737;50.558;7.258;2023-03-05T13:37:48;10.90;99.90
23137;DHT22;11737;50.558;7.258;2023-03-05T13:40:22;10.90;99.90
23137;DHT22;11737;50.558;7.258;2023-03-05T13:42:47;10.80;99.90
23137;DHT22;11737;50.558;7.258;2023-03-05T13:45:32;10.80;99.90
23137;DHT22;11737;50.558;7.258;2023-03-05T13:47:58;10.70;99.90
23137;DHT22;11737;50.558;7.258;2023-03-05T13:50:31;10.70;99.90
23137;DHT22;11737;50.558;7.258;2023-03-05T13:55:50;10.60;99.90
23137;DHT22;11737;50.558;7.258;2023-03-05T13:58:43;10.50;99.90
23137;DHT22;11737;50.558;7.258;2023-03-05T14:01:20;10.40;99.90
23137;DHT22;11737;50.558;7.258;2023-03-05T14:03:48;10.30;99.90
23137;DHT22;11737;50.558;7.258;2023-03-05T14:06:19;10.30;99.90
23137;DHT22;11737;50.558;7.258;2023-03-05T14:08:52;10.20;99.90
23137;DHT22;11737;50.558;7.258;2023-03-05T14:11:21;10.20;99.90
23137;DHT22;11737;50.558;7.258;2023-03-05T14:13:56;10.20;99.90
23137;DHT22;11737;50.558;7.258;2023-03-05T14:16:25;10.10;99.90
23137;DHT22;11737;50.558;7.258;2023-03-05T14:21:49;10.00;99.90
23137;DHT22;11737;50.558;7.258;2023-03-05T14:24:22;9.80;99.90
23137;DHT22;11737;50.558;7.258;2023-03-05T14:26:57;9.70;99.90
23137;DHT22;11737;50.558;7.258;2023-03-05T14:29:26;9.60;99.90
23137;DHT22;11737;50.558;7.258;2023-03-05T14:32:06;9.60;99.90
23137;DHT22;11737;50.558;7.258;2023-03-05T14:34:41;9.60;99.90
23137;DHT22;11737;50.558;7.258;2023-03-05T14:37:28;9.60;99.90
23137;DHT22;11737;50.558;7.258;2023-03-05T14:40:20;9.50;99.90
23137;DHT22;11737;50.558;7.258;2023-03-05T14:42:58;9.50;99.90
23137;DHT22;11737;50.558;7.258;2023-03-05T14:45:39;9.50;99.90
23137;DHT22;11737;50.558;7.258;2023-03-05T14:48:05;9.40;99.90
23137;DHT22;11737;50.558;7.258;2023-03-05T14:50:40;9.50;99.90
23137;DHT22;11737;50.558;7.258;2023-03-05T14:53:32;9.50;99.90
23137;DHT22;11737;50.558;7.258;2023-03-05T14:55:55;9.50;99.90
23137;DHT22;11737;50.558;7.258;2023-03-05T14:58:28;9.60;99.90
23137;DHT22;11737;50.558;7.258;2023-03-05T15:00:58;9.60;99.90
23137;DHT22;11737;50.558;7.258;2023-03-05T15:03:26;9.60;99.90
23137;DHT22;11737;50.558;7.258;2023-03-05T15:05:56;9.70;99.90
23137;DHT22;11737;50.558;7.258;2023-03-05T15:08:29;9.70;99.90
23137;DHT22;11737;50.558;7.258;2023-03-05T15:10:58;9.70;99.90
23137;DHT22;11737;50.558;7.258;2023-03-05T15:13:26;9.70;99.90
23137;DHT22;11737;50.558;7.258;2023-03-05T15:15:54;9.70;99.90
23137;DHT22;11737;50.558;7.258;2023-03-05T15:18:22;9.70;99.90
23137;DHT22;11737;50.558;7.258;2023-03-05T15:20:50;9.70;99.90
23137;DHT22;11737;50.558;7.258;2023-03-05T15:23:22;9.70;99.90
23137;DHT22;11737;50.558;7.258;2023-03-05T15:25:50;9.70;99.90
23137;DHT22;11737;50.558;7.258;2023-03-05T15:28:17;9.60;99.90
23137;DHT22;11737;50.558;7.258;2023-03-05T15:30:46;9.60;99.90
23137;DHT22;11737;50.558;7.258;2023-03-05T15:33:16;9.60;99.90
23137;DHT22;11737;50.558;7.258;2023-03-05T15:35:44;9.60;99.90
23137;DHT22;11737;50.558;7.258;2023-03-05T15:38:11;9.50;99.90
23137;DHT22;11737;50.558;7.258;2023-03-05T15:40:40;9.50;99.90
23137;DHT22;11737;50.558;7.258;2023-03-05T15:43:10;9.40;99.90
23137;DHT22;11737;50.558;7.258;2023-03-05T15:45:37;9.30;99.90
23137;DHT22;11737;50.558;7.258;2023-03-05T15:48:05;9.20;99.90
23137;DHT22;11737;50.558;7.258;2023-03-05T15:50:32;9.20;99.90
23137;DHT22;11737;50.558;7.258;2023-03-05T15:53:00;9.00;99.90
23137;DHT22;11737;50.558;7.258;2023-03-05T15:55:27;8.90;99.90
23137;DHT22;11737;50.558;7.258;2023-03-05T15:57:55;8.80;99.90
23137;DHT22;11737;50.558;7.258;2023-03-05T16:00:25;8.70;99.90
23137;DHT22;11737;50.558;7.258;2023-03-05T16:02:53;8.80;99.90
23137;DHT22;11737;50.558;7.258;2023-03-05T16:08:26;8.70;99.90
23137;DHT22;11737;50.558;7.258;2023-03-05T16:10:54;8.60;99.90
23137;DHT22;11737;50.558;7.258;2023-03-05T16:13:21;8.60;99.90
23137;DHT22;11737;50.558;7.258;2023-03-05T16:15:51;8.60;99.90
23137;DHT22;11737;50.558;7.258;2023-03-05T16:18:20;8.40;99.90
23137;DHT22;11737;50.558;7.258;2023-03-05T16:20:49;8.40;99.90
23137;DHT22;11737;50.558;7.258;2023-03-05T16:23:17;8.30;99.90
23137;DHT22;11737;50.558;7.258;2023-03-05T16:25:45;8.30;99.90
23137;DHT22;11737;50.558;7.258;2023-03-05T16:28:13;8.20;99.90
23137;DHT22;11737;50.558;7.258;2023-03-05T16:30:40;8.30;99.90
23137;DHT22;11737;50.558;7.258;2023-03-05T16:33:09;8.50;99.90
23137;DHT22;11737;50.558;7.258;2023-03-05T16:35:36;8.70;99.90
23137;DHT22;11737;50.558;7.258;2023-03-05T16:38:04;8.80;99.90
23137;DHT22;11737;50.558;7.258;2023-03-05T16:40:35;8.90;99.90
23137;DHT22;11737;50.558;7.258;2023-03-05T16:43:03;8.90;99.90
23137;DHT22;11737;50.558;7.258;2023-03-05T16:45:30;8.90;99.90
23137;DHT22;11737;50.558;7.258;2023-03-05T16:47:58;8.90;99.90
23137;DHT22;11737;50.558;7.258;2023-03-05T16:50:25;8.80;99.90
23137;DHT22;11737;50.558;7.258;2023-03-05T16:52:53;8.80;99.90
23137;DHT22;11737;50.558;7.258;2023-03-05T16:55:20;8.80;99.90
23137;DHT22;11737;50.558;7.258;2023-03-05T16:57:48;8.80;99.90
23137;DHT22;11737;50.558;7.258;2023-03-05T17:00:16;8.70;99.90
23137;DHT22;11737;50.558;7.258;2023-03-05T17:02:44;8.70;99.90
23137;DHT22;11737;50.558;7.258;2023-03-05T17:05:11;8.60;99.90
23137;DHT22;11737;50.558;7.258;2023-03-05T17:07:39;8.60;99.90
23137;DHT22;11737;50.558;7.258;2023-03-05T17:10:07;8.60;99.90
23137;DHT22;11737;50.558;7.258;2023-03-05T17:12:35;8.50;99.90
23137;DHT22;11737;50.558;7.258;2023-03-05T17:15:03;8.50;99.90
23137;DHT22;11737;50.558;7.258;2023-03-05T17:17:31;8.60;99.90
23137;DHT22;11737;50.558;7.258;2023-03-05T17:19:59;8.60;99.90
23137;DHT22;11737;50.558;7.258;2023-03-05T17:22:26;8.60;99.90
23137;DHT22;11737;50.558;7.258;2023-03-05T17:24:54;8.60;99.90
23137;DHT22;11737;50.558;7.258;2023-03-05T17:27:21;8.60;99.90
23137;DHT22;11737;50.558;7.258;2023-03-05T17:29:49;8.70;99.90
23137;DHT22;11737;50.558;7.258;2023-03-05T17:32:16;8.70;99.90
23137;DHT22;11737;50.558;7.258;2023-03-05T17:34:44;8.70;99.90
23137;DHT22;11737;50.558;7.258;2023-03-05T17:37:11;8.70;99.90